createdAt,value
2019-02-27T00:02:22.749Z,22.50
2019-02-27T00:04:47.561Z,22.50
2019-02-27T00:07:14.402Z,22.50
2019-02-27T00:09:41.107Z,22.50
2019-02-27T00:12:07.929Z,22.40
2019-02-27T00:14:34.721Z,22.40
2019-02-27T00:17:01.576Z,22.40
2019-02-27T00:19:31.099Z,22.30
2019-02-27T00:21:56.801Z,22.20
2019-02-27T00:24:23.653Z,22.20
2019-02-27T00:26:50.454Z,22.20
2019-02-27T00:29:17.206Z,22.20
2019-02-27T00:31:46.032Z,22.10
2019-02-27T00:34:12.257Z,22.10
2019-02-27T00:36:39.077Z,22.00
2019-02-27T00:39:05.791Z,21.90
2019-02-27T00:41:32.446Z,21.90
2019-02-27T00:44:01.443Z,21.80
2019-02-27T00:46:27.513Z,21.90
2019-02-27T00:48:54.207Z,21.80
2019-02-27T00:51:20.934Z,21.80
2019-02-27T00:53:47.771Z,21.80
2019-02-27T00:56:14.625Z,21.80
2019-02-27T00:58:41.501Z,21.80
2019-02-27T01:01:10.040Z,21.80
2019-02-27T01:03:36.681Z,21.90
2019-02-27T01:06:03.406Z,22.00
2019-02-27T01:08:30.360Z,22.00
2019-02-27T01:10:57.202Z,22.10
2019-02-27T01:13:23.951Z,22.10
2019-02-27T01:15:50.786Z,22.10
2019-02-27T01:18:17.630Z,22.10
2019-02-27T01:20:46.451Z,22.10
2019-02-27T01:23:12.846Z,22.10
2019-02-27T01:25:39.625Z,22.10
2019-02-27T01:28:10.869Z,22.00
2019-02-27T01:30:34.797Z,22.10
2019-02-27T01:33:03.932Z,22.10
2019-02-27T01:35:30.021Z,22.10
2019-02-27T01:37:56.753Z,22.20
2019-02-27T01:40:23.600Z,22.20
2019-02-27T01:42:50.333Z,22.20
2019-02-27T01:45:20.728Z,22.20
2019-02-27T01:47:45.770Z,22.20
2019-02-27T01:50:12.606Z,22.20
2019-02-27T01:52:39.463Z,22.20
2019-02-27T01:55:06.184Z,22.10
2019-02-27T01:57:34.108Z,22.10
2019-02-27T02:00:01.401Z,22.00
2019-02-27T02:02:28.136Z,22.00
2019-02-27T02:04:54.994Z,22.00
2019-02-27T02:07:21.835Z,21.90
2019-02-27T02:09:48.681Z,21.80
2019-02-27T02:12:15.424Z,21.80
2019-02-27T02:14:42.345Z,21.80
2019-02-27T02:17:09.088Z,21.70
2019-02-27T02:19:35.943Z,21.60
2019-02-27T02:22:02.787Z,21.60
2019-02-27T02:24:29.720Z,21.60
2019-02-27T02:26:56.417Z,21.60
2019-02-27T02:29:23.200Z,21.50
2019-02-27T02:31:50.040Z,21.50
2019-02-27T02:34:16.884Z,21.40
2019-02-27T02:36:43.613Z,21.30
2019-02-27T02:39:10.366Z,21.30
2019-02-27T02:41:37.101Z,21.40
2019-02-27T02:44:03.944Z,21.30
2019-02-27T02:46:30.793Z,21.30
2019-02-27T02:48:57.625Z,21.30
2019-02-27T02:51:28.647Z,21.30
2019-02-27T02:53:52.951Z,21.30
2019-02-27T02:56:23.772Z,21.30
2019-02-27T02:58:48.879Z,21.30
2019-02-27T03:01:15.702Z,21.30
2019-02-27T03:03:42.468Z,21.20
2019-02-27T03:06:09.430Z,21.20
2019-02-27T03:08:36.142Z,21.20
2019-02-27T03:11:02.986Z,21.20
2019-02-27T03:13:29.723Z,21.20
2019-02-27T03:15:56.472Z,21.20
2019-02-27T03:18:26.296Z,21.10
2019-02-27T03:20:52.452Z,21.10
2019-02-27T03:23:20.186Z,21.10
2019-02-27T03:25:46.896Z,21.10
2019-02-27T03:28:13.649Z,21.10
2019-02-27T03:30:40.500Z,21.10
2019-02-27T03:33:07.230Z,21.10
2019-02-27T03:35:34.071Z,21.00
2019-02-27T03:38:00.913Z,21.00
2019-02-27T03:40:27.763Z,21.00
2019-02-27T03:42:54.596Z,21.00
2019-02-27T03:45:21.291Z,21.00
2019-02-27T03:47:51.623Z,21.00
2019-02-27T03:50:16.443Z,20.90
2019-02-27T03:52:43.292Z,20.90
2019-02-27T03:55:10.139Z,20.90
2019-02-27T03:57:37.509Z,20.90
2019-02-27T04:00:04.755Z,20.80
2019-02-27T04:02:31.583Z,20.80
2019-02-27T04:05:05.412Z,20.80
2019-02-27T04:07:31.495Z,20.80
2019-02-27T04:09:55.414Z,20.70
2019-02-27T04:12:23.156Z,20.70
2019-02-27T04:14:49.995Z,20.70
2019-02-27T04:17:16.716Z,20.70
2019-02-27T04:19:43.473Z,20.40
2019-02-27T04:22:10.201Z,20.40
2019-02-27T04:24:37.034Z,20.30
2019-02-27T04:27:03.688Z,20.30
2019-02-27T04:29:30.417Z,20.30
2019-02-27T04:31:57.266Z,20.30
2019-02-27T04:34:24.148Z,20.40
2019-02-27T04:36:50.939Z,20.50
2019-02-27T04:39:17.688Z,20.50
2019-02-27T04:41:44.420Z,20.50
2019-02-27T04:44:11.275Z,20.50
2019-02-27T04:46:38.115Z,20.60
2019-02-27T04:49:05.227Z,20.60
2019-02-27T04:51:32.104Z,20.60
2019-02-27T04:53:58.975Z,20.60
2019-02-27T04:56:25.786Z,20.60
2019-02-27T04:58:52.619Z,20.60
2019-02-27T05:01:19.456Z,20.60
2019-02-27T05:03:46.208Z,20.60
2019-02-27T05:06:14.390Z,20.60
2019-02-27T05:08:41.618Z,20.60
2019-02-27T05:11:08.361Z,20.70
2019-02-27T05:13:35.216Z,20.60
2019-02-27T05:16:01.939Z,20.60
2019-02-27T05:18:29.492Z,20.60
2019-02-27T05:20:56.747Z,20.70
2019-02-27T05:23:23.391Z,20.70
2019-02-27T05:25:50.230Z,20.70
2019-02-27T05:28:17.112Z,20.60
2019-02-27T05:30:45.337Z,20.60
2019-02-27T05:33:12.191Z,20.60
2019-02-27T05:35:38.926Z,20.60
2019-02-27T05:38:05.770Z,20.60
2019-02-27T05:40:32.517Z,20.60
2019-02-27T05:42:59.246Z,20.60
2019-02-27T05:45:30.390Z,20.60
2019-02-27T05:47:54.378Z,20.60
2019-02-27T05:50:21.336Z,20.60
2019-02-27T05:52:48.893Z,20.60
2019-02-27T05:55:16.328Z,20.60
2019-02-27T05:57:43.059Z,20.70
2019-02-27T06:00:09.822Z,20.70
2019-02-27T06:02:36.653Z,20.70
2019-02-27T06:05:03.472Z,20.80
2019-02-27T06:07:30.964Z,20.80
2019-02-27T06:09:58.052Z,20.90
2019-02-27T06:12:25.147Z,20.90
2019-02-27T06:14:54.833Z,21.00
2019-02-27T06:17:20.494Z,21.10
2019-02-27T06:19:47.410Z,21.20
2019-02-27T06:22:14.157Z,21.30
2019-02-27T06:24:43.129Z,21.40
2019-02-27T06:27:09.360Z,21.60
2019-02-27T06:29:35.998Z,21.90
2019-02-27T06:32:02.747Z,22.10
2019-02-27T06:34:29.474Z,22.20
2019-02-27T06:36:56.223Z,22.40
2019-02-27T06:39:23.265Z,22.50
2019-02-27T06:41:50.440Z,22.50
2019-02-27T06:44:18.997Z,22.60
2019-02-27T06:46:45.748Z,22.70
2019-02-27T06:49:17.257Z,22.80
2019-02-27T06:51:41.057Z,23.00
2019-02-27T06:54:07.756Z,23.20
2019-02-27T06:56:34.543Z,23.40
2019-02-27T06:59:01.386Z,23.50
2019-02-27T07:01:28.228Z,23.70
2019-02-27T07:03:55.077Z,23.70
2019-02-27T07:06:22.260Z,23.70
2019-02-27T07:08:48.947Z,23.70
2019-02-27T07:11:15.799Z,23.60
2019-02-27T07:13:42.505Z,23.50
2019-02-27T07:16:09.617Z,23.30
2019-02-27T07:18:36.554Z,23.30
2019-02-27T07:21:04.542Z,23.30
2019-02-27T07:23:31.335Z,23.20
2019-02-27T07:25:58.076Z,23.20
2019-02-27T07:28:24.934Z,23.20
2019-02-27T07:30:51.749Z,23.20
2019-02-27T07:33:18.611Z,23.20
2019-02-27T07:35:45.441Z,23.30
2019-02-27T07:38:12.281Z,23.20
2019-02-27T07:40:42.702Z,23.00
2019-02-27T07:43:07.503Z,22.80
2019-02-27T07:45:34.346Z,22.60
2019-02-27T07:48:01.188Z,22.60
2019-02-27T07:50:27.878Z,22.70
2019-02-27T07:52:54.660Z,22.70
2019-02-27T07:55:22.895Z,22.70
2019-02-27T07:57:49.781Z,22.60
2019-02-27T08:00:16.631Z,22.50
2019-02-27T08:02:43.470Z,22.40
2019-02-27T08:05:10.461Z,22.20
2019-02-27T08:07:37.249Z,22.10
2019-02-27T08:10:04.782Z,22.20
2019-02-27T08:12:31.595Z,22.50
2019-02-27T08:14:59.726Z,22.70
2019-02-27T08:17:26.830Z,22.60
2019-02-27T08:19:53.613Z,22.60
2019-02-27T08:22:20.346Z,22.60
2019-02-27T08:24:47.194Z,22.20
2019-02-27T08:27:14.032Z,22.20
2019-02-27T08:29:40.874Z,22.00
2019-02-27T08:32:07.571Z,22.00
2019-02-27T08:34:34.341Z,22.40
2019-02-27T08:37:01.094Z,22.90
2019-02-27T08:39:27.935Z,23.30
2019-02-27T08:41:54.764Z,23.30
2019-02-27T08:44:21.505Z,23.60
2019-02-27T08:46:48.254Z,23.70
2019-02-27T08:49:15.194Z,23.90
2019-02-27T08:51:42.596Z,24.20
2019-02-27T08:54:09.397Z,24.60
2019-02-27T08:56:36.106Z,25.10
2019-02-27T08:59:05.095Z,25.70
2019-02-27T09:01:31.256Z,25.90
2019-02-27T09:03:57.978Z,26.40
2019-02-27T09:06:27.326Z,26.60
2019-02-27T09:08:53.308Z,26.70
2019-02-27T09:11:20.051Z,27.10
2019-02-27T09:13:46.785Z,27.60
2019-02-27T09:16:13.629Z,27.80
2019-02-27T09:18:40.463Z,28.50
2019-02-27T09:21:07.197Z,29.10
2019-02-27T09:23:33.955Z,29.80
2019-02-27T09:26:02.851Z,29.90
2019-02-27T09:28:29.170Z,29.60
2019-02-27T09:30:55.997Z,29.30
2019-02-27T09:33:22.750Z,29.50
2019-02-27T09:35:49.447Z,29.90
2019-02-27T09:38:16.116Z,30.10
2019-02-27T09:40:42.832Z,30.20
2019-02-27T09:43:09.608Z,30.50
2019-02-27T09:45:36.452Z,30.90
2019-02-27T09:48:03.286Z,31.30
2019-02-27T09:50:30.015Z,31.60
2019-02-27T09:52:56.657Z,32.10
2019-02-27T09:55:23.391Z,32.60
2019-02-27T09:57:50.135Z,32.40
2019-02-27T10:00:16.882Z,32.60
2019-02-27T10:02:46.291Z,33.00
2019-02-27T10:05:12.505Z,32.90
2019-02-27T10:07:39.443Z,33.00
2019-02-27T10:10:10.243Z,32.80
2019-02-27T10:12:34.532Z,33.20
2019-02-27T10:15:01.198Z,33.40
2019-02-27T10:17:28.608Z,33.60
2019-02-27T10:19:55.497Z,33.70
2019-02-27T10:22:22.349Z,33.90
2019-02-27T10:24:49.192Z,33.90
2019-02-27T10:27:16.039Z,34.20
2019-02-27T10:29:42.735Z,34.00
2019-02-27T10:32:09.503Z,34.40
2019-02-27T10:34:36.454Z,34.40
2019-02-27T10:37:03.239Z,34.40
2019-02-27T10:39:30.142Z,34.60
2019-02-27T10:41:56.896Z,34.90
2019-02-27T10:44:24.218Z,35.20
2019-02-27T10:46:52.106Z,35.90
2019-02-27T10:49:21.409Z,36.30
2019-02-27T10:51:47.328Z,36.60
2019-02-27T10:54:14.150Z,37.00
2019-02-27T10:56:40.986Z,37.50
2019-02-27T10:59:07.760Z,38.10
2019-02-27T11:01:36.346Z,38.50
2019-02-27T11:04:03.142Z,38.70
2019-02-27T11:06:34.050Z,38.70
2019-02-27T11:08:59.084Z,39.00
2019-02-27T11:11:26.035Z,39.30
2019-02-27T11:13:55.275Z,39.60
2019-02-27T11:16:22.103Z,39.80
2019-02-27T11:18:48.921Z,39.90
2019-02-27T11:21:15.767Z,39.30
2019-02-27T11:23:42.604Z,38.90
2019-02-27T11:26:09.445Z,38.20
2019-02-27T11:28:36.175Z,37.50
2019-02-27T11:31:02.938Z,37.10
2019-02-27T11:33:32.529Z,36.70
2019-02-27T11:35:58.242Z,36.50
2019-02-27T11:38:25.521Z,36.00
2019-02-27T11:40:52.516Z,35.50
2019-02-27T11:43:19.283Z,35.00
2019-02-27T11:45:46.129Z,34.80
2019-02-27T11:48:12.962Z,35.00
2019-02-27T11:50:39.693Z,34.40
2019-02-27T11:53:06.335Z,33.90
2019-02-27T11:55:33.178Z,33.60
2019-02-27T11:58:04.575Z,34.40
2019-02-27T12:00:28.507Z,34.90
2019-02-27T12:02:55.248Z,35.40
2019-02-27T12:05:22.080Z,35.20
2019-02-27T12:07:51.220Z,36.10
2019-02-27T12:10:17.305Z,37.00
2019-02-27T12:12:44.148Z,37.30
2019-02-27T12:15:10.889Z,37.30
2019-02-27T12:17:37.611Z,37.50
2019-02-27T12:20:04.372Z,37.70
2019-02-27T12:22:32.938Z,37.80
2019-02-27T12:24:59.590Z,37.10
2019-02-27T12:27:47.903Z,36.70
2019-02-27T12:29:54.689Z,36.60
2019-02-27T12:32:21.953Z,36.60
2019-02-27T12:34:49.410Z,36.00
2019-02-27T12:37:27.520Z,36.10
2019-02-27T12:39:47.279Z,36.20
2019-02-27T12:42:13.095Z,35.80
2019-02-27T12:44:39.849Z,35.90
2019-02-27T12:47:06.688Z,35.50
2019-02-27T12:49:33.531Z,35.60
2019-02-27T12:52:00.382Z,35.50
2019-02-27T12:54:27.495Z,35.30
2019-02-27T12:56:54.416Z,34.60
2019-02-27T12:59:21.202Z,33.60
2019-02-27T13:01:50.777Z,32.90
2019-02-27T13:04:19.735Z,32.10
2019-02-27T13:06:44.825Z,31.20
2019-02-27T13:09:11.641Z,30.60
2019-02-27T13:11:39.076Z,30.10
2019-02-27T13:14:06.953Z,29.90
2019-02-27T13:16:33.896Z,29.60
2019-02-27T13:19:00.639Z,29.40
2019-02-27T13:21:27.396Z,29.10
2019-02-27T13:23:55.737Z,29.20
2019-02-27T13:26:22.603Z,29.20
2019-02-27T13:28:49.722Z,29.20
2019-02-27T13:31:17.156Z,29.10
2019-02-27T13:33:44.260Z,29.20
2019-02-27T13:36:12.761Z,29.10
2019-02-27T13:38:39.681Z,28.20
2019-02-27T13:41:07.674Z,28.10
2019-02-27T13:43:34.802Z,28.10
2019-02-27T13:46:01.549Z,27.90
2019-02-27T13:48:28.542Z,28.00
2019-02-27T13:50:56.677Z,28.00
2019-02-27T13:53:26.604Z,28.00
2019-02-27T13:55:52.155Z,28.00
2019-02-27T13:58:18.851Z,27.90
2019-02-27T14:00:45.758Z,28.00
2019-02-27T14:03:13.327Z,27.90
2019-02-27T14:05:40.114Z,27.60
2019-02-27T14:08:06.831Z,27.60
2019-02-27T14:10:33.497Z,27.50
2019-02-27T14:13:00.300Z,27.70
2019-02-27T14:15:28.065Z,27.60
2019-02-27T14:17:55.000Z,27.80
2019-02-27T14:20:21.736Z,27.60
2019-02-27T14:22:48.564Z,27.30
2019-02-27T14:25:15.502Z,26.90
2019-02-27T14:27:42.353Z,26.80
2019-02-27T14:30:09.204Z,26.90
2019-02-27T14:32:35.926Z,27.20
2019-02-27T14:35:02.667Z,27.20
2019-02-27T14:37:29.410Z,27.40
2019-02-27T14:39:56.175Z,28.00
2019-02-27T14:42:22.878Z,28.60
2019-02-27T14:44:49.548Z,29.00
2019-02-27T14:47:16.526Z,29.30
2019-02-27T14:49:44.016Z,29.40
2019-02-27T14:52:14.055Z,29.80
2019-02-27T14:54:39.101Z,30.00
2019-02-27T14:57:05.899Z,29.90
2019-02-27T14:59:32.619Z,30.00
2019-02-27T15:01:59.462Z,29.00
2019-02-27T15:04:26.309Z,29.00
2019-02-27T15:06:53.149Z,28.10
2019-02-27T15:09:19.987Z,27.60
2019-02-27T15:11:48.123Z,27.30
2019-02-27T15:14:15.300Z,27.20
2019-02-27T15:16:42.042Z,27.00
2019-02-27T15:19:08.778Z,26.90
2019-02-27T15:21:35.534Z,26.70
2019-02-27T15:24:02.256Z,26.80
2019-02-27T15:26:29.000Z,26.70
2019-02-27T15:28:55.768Z,26.80
2019-02-27T15:31:22.592Z,26.70
2019-02-27T15:33:49.535Z,26.70
2019-02-27T15:36:16.276Z,26.20
2019-02-27T15:38:46.151Z,26.10
2019-02-27T15:41:11.591Z,26.20
2019-02-27T15:43:38.322Z,25.90
2019-02-27T15:46:05.180Z,25.70
2019-02-27T15:48:32.007Z,25.30
2019-02-27T15:50:58.852Z,25.00
2019-02-27T15:53:25.581Z,24.70
2019-02-27T15:55:52.240Z,24.80
2019-02-27T15:58:18.958Z,24.80
2019-02-27T16:00:45.707Z,24.90
2019-02-27T16:03:12.455Z,24.90
2019-02-27T16:05:40.157Z,24.80
2019-02-27T16:08:06.952Z,24.90
2019-02-27T16:10:33.812Z,24.50
2019-02-27T16:13:01.408Z,24.40
2019-02-27T16:15:28.394Z,24.30
2019-02-27T16:17:55.094Z,24.20
2019-02-27T16:20:21.871Z,24.20
2019-02-27T16:22:48.775Z,24.10
2019-02-27T16:25:18.389Z,24.10
2019-02-27T16:27:43.983Z,24.20
2019-02-27T16:30:10.773Z,24.20
2019-02-27T16:32:37.636Z,24.10
2019-02-27T16:35:07.393Z,24.00
2019-02-27T16:37:32.850Z,24.00
2019-02-27T16:39:59.795Z,24.00
2019-02-27T16:42:26.536Z,23.90
2019-02-27T16:44:54.465Z,24.00
2019-02-27T16:47:23.699Z,24.10
2019-02-27T16:49:50.653Z,24.10
2019-02-27T16:52:18.287Z,24.00
2019-02-27T16:54:45.243Z,23.90
2019-02-27T16:57:11.965Z,23.70
2019-02-27T16:59:38.761Z,23.60
2019-02-27T17:02:05.551Z,23.50
2019-02-27T17:04:34.247Z,23.50
2019-02-27T17:07:00.794Z,23.50
2019-02-27T17:09:27.623Z,23.50
2019-02-27T17:11:54.478Z,23.40
2019-02-27T17:14:24.432Z,23.20
2019-02-27T17:16:49.685Z,22.90
2019-02-27T17:19:16.534Z,22.80
2019-02-27T17:21:43.228Z,22.80
2019-02-27T17:24:09.991Z,23.00
2019-02-27T17:26:39.162Z,23.20
2019-02-27T17:29:05.218Z,23.20
2019-02-27T17:31:31.956Z,23.30
2019-02-27T17:33:58.802Z,23.30
2019-02-27T17:36:25.648Z,23.30
2019-02-27T17:38:52.371Z,23.40
2019-02-27T17:41:19.113Z,23.30
2019-02-27T17:43:45.979Z,23.20
2019-02-27T17:46:12.722Z,23.20
2019-02-27T17:48:39.567Z,23.20
2019-02-27T17:51:06.691Z,23.40
2019-02-27T17:53:33.726Z,23.50
2019-02-27T17:56:00.473Z,23.50
2019-02-27T17:58:31.852Z,23.70
2019-02-27T18:00:55.615Z,23.90
2019-02-27T18:03:22.427Z,24.00
2019-02-27T18:05:49.378Z,24.20
2019-02-27T18:08:17.098Z,24.10
2019-02-27T18:10:43.991Z,23.80
2019-02-27T18:13:10.720Z,23.80
2019-02-27T18:15:37.475Z,24.00
2019-02-27T18:18:07.150Z,24.00
2019-02-27T18:20:32.688Z,24.00
2019-02-27T18:22:59.417Z,24.00
2019-02-27T18:25:26.163Z,23.80
2019-02-27T18:27:52.896Z,23.80
2019-02-27T18:30:20.041Z,23.80
2019-02-27T18:32:46.735Z,23.90
2019-02-27T18:35:13.430Z,23.90
2019-02-27T18:37:40.123Z,23.80
2019-02-27T18:40:08.359Z,23.80
2019-02-27T18:42:35.380Z,23.80
2019-02-27T18:45:03.086Z,23.80
2019-02-27T18:47:32.162Z,23.70
2019-02-27T18:49:58.474Z,23.50
2019-02-27T18:52:25.312Z,23.30
2019-02-27T18:54:54.699Z,23.20
2019-02-27T18:57:21.931Z,23.10
2019-02-27T18:59:48.730Z,23.10
2019-02-27T19:02:19.661Z,23.20
2019-02-27T19:04:44.182Z,23.30
2019-02-27T19:07:12.748Z,23.40
2019-02-27T19:09:39.745Z,23.50
2019-02-27T19:12:06.641Z,23.60
2019-02-27T19:14:36.684Z,23.50
2019-02-27T19:17:03.340Z,23.50
2019-02-27T19:19:30.205Z,23.50
2019-02-27T19:21:57.032Z,23.50
2019-02-27T19:24:27.519Z,23.40
2019-02-27T19:26:52.961Z,23.40
2019-02-27T19:29:19.702Z,23.50
2019-02-27T19:31:48.346Z,23.60
2019-02-27T19:34:15.538Z,23.50
2019-02-27T19:36:42.591Z,23.40
2019-02-27T19:39:10.206Z,23.20
2019-02-27T19:41:39.667Z,23.20
2019-02-27T19:44:06.097Z,23.30
2019-02-27T19:46:32.926Z,23.40
2019-02-27T19:49:00.891Z,23.50
2019-02-27T19:51:28.955Z,23.60
2019-02-27T19:53:56.152Z,23.50
2019-02-27T19:56:23.560Z,23.60
2019-02-27T19:58:51.267Z,23.70
2019-02-27T20:01:18.834Z,23.70
2019-02-27T20:03:45.635Z,23.70
2019-02-27T20:06:12.362Z,23.70
2019-02-27T20:08:44.468Z,23.70
2019-02-27T20:11:08.318Z,23.70
2019-02-27T20:13:35.363Z,23.70
2019-02-27T20:16:02.240Z,23.70
2019-02-27T20:18:29.027Z,23.70
2019-02-27T20:20:55.767Z,23.60
2019-02-27T20:23:25.746Z,23.60
2019-02-27T20:25:52.224Z,23.60
2019-02-27T20:28:20.524Z,23.60
2019-02-27T20:30:47.344Z,23.50
2019-02-27T20:33:17.407Z,23.60
2019-02-27T20:35:45.952Z,23.60
2019-02-27T20:38:16.006Z,23.60
2019-02-27T20:40:41.464Z,23.60
2019-02-27T20:43:08.411Z,23.60
2019-02-27T20:45:36.293Z,23.60
2019-02-27T20:48:03.119Z,23.50
2019-02-27T20:50:34.948Z,23.50
2019-02-27T20:52:59.635Z,23.50
2019-02-27T20:55:26.849Z,23.50
2019-02-27T20:57:54.271Z,23.50
2019-02-27T21:00:21.491Z,23.50
2019-02-27T21:02:50.342Z,23.50
2019-02-27T21:05:16.599Z,23.50
2019-02-27T21:07:43.787Z,23.40
2019-02-27T21:10:10.635Z,23.40
2019-02-27T21:12:40.631Z,23.30
2019-02-27T21:15:05.854Z,23.30
2019-02-27T21:17:36.108Z,23.10
2019-02-27T21:20:03.006Z,23.00
2019-02-27T21:22:29.929Z,23.10
2019-02-27T21:24:56.901Z,23.10
2019-02-27T21:27:23.638Z,23.10
2019-02-27T21:29:50.392Z,23.10
2019-02-27T21:32:17.128Z,23.10
2019-02-27T21:34:43.960Z,23.10
2019-02-27T21:37:10.870Z,23.00
2019-02-27T21:39:37.997Z,23.00
2019-02-27T21:42:05.112Z,23.00
2019-02-27T21:44:31.945Z,22.90
2019-02-27T21:46:59.598Z,22.90
2019-02-27T21:49:26.294Z,22.80
2019-02-27T21:51:53.088Z,22.80
2019-02-27T21:54:20.894Z,22.60
2019-02-27T21:56:49.211Z,22.40
2019-02-27T21:59:16.091Z,22.40
2019-02-27T22:01:43.005Z,22.40
2019-02-27T22:04:10.786Z,22.40
2019-02-27T22:06:37.579Z,22.50
2019-02-27T22:09:04.424Z,22.70
2019-02-27T22:11:31.304Z,22.80
2019-02-27T22:13:58.138Z,22.90
2019-02-27T22:16:29.482Z,22.80
2019-02-27T22:18:54.373Z,22.60
2019-02-27T22:21:21.069Z,22.50
2019-02-27T22:23:48.275Z,22.60
2019-02-27T22:26:15.335Z,22.40
2019-02-27T22:28:42.362Z,22.30
2019-02-27T22:31:09.062Z,22.40
2019-02-27T22:33:35.834Z,22.30
2019-02-27T22:36:02.570Z,22.20
2019-02-27T22:38:29.312Z,22.50
2019-02-27T22:40:56.055Z,22.50
2019-02-27T22:43:23.189Z,22.40
2019-02-27T22:45:50.964Z,22.50
2019-02-27T22:48:17.811Z,22.70
2019-02-27T22:50:45.026Z,22.80
2019-02-27T22:53:11.808Z,22.90
2019-02-27T22:55:42.156Z,22.70
2019-02-27T22:58:07.673Z,22.90
2019-02-27T23:00:34.501Z,23.00
2019-02-27T23:03:03.042Z,23.00
2019-02-27T23:05:29.797Z,23.00
2019-02-27T23:07:56.639Z,23.00
2019-02-27T23:10:23.377Z,22.60
2019-02-27T23:12:50.220Z,22.60
2019-02-27T23:15:16.962Z,22.50
2019-02-27T23:17:43.698Z,22.60
2019-02-27T23:20:10.452Z,22.70
2019-02-27T23:22:37.584Z,22.80
2019-02-27T23:25:04.323Z,22.90
2019-02-27T23:27:31.585Z,22.90
2019-02-27T23:29:58.421Z,23.00
2019-02-27T23:32:28.442Z,23.10
2019-02-27T23:34:55.599Z,23.10
2019-02-27T23:37:22.391Z,23.00
2019-02-27T23:39:49.168Z,23.10
2019-02-27T23:42:16.108Z,23.10
2019-02-27T23:44:42.860Z,23.10
2019-02-27T23:47:09.577Z,23.10
2019-02-27T23:49:39.526Z,23.10
2019-02-27T23:52:04.932Z,23.10
2019-02-27T23:54:35.417Z,23.10
2019-02-27T23:57:00.139Z,23.10
2019-02-27T23:59:26.986Z,23.00
